createdAt,value
2022-10-18T00:02:09.690Z,102741.47
2022-10-18T00:04:36.531Z,102743.06
2022-10-18T00:07:03.006Z,102743.28
2022-10-18T00:09:29.763Z,102736.38
2022-10-18T00:11:56.923Z,102737.22
2022-10-18T00:14:23.560Z,102730.13
2022-10-18T00:16:49.887Z,102745.94
2022-10-18T00:19:16.226Z,102737.03
2022-10-18T00:21:46.030Z,102734.38
2022-10-18T00:24:12.400Z,102732.69
2022-10-18T00:26:38.764Z,102741.56
2022-10-18T00:29:05.846Z,102738.91
2022-10-18T00:31:37.721Z,102737.75
2022-10-18T00:34:06.808Z,102739.34
2022-10-18T00:36:34.394Z,102741.91
2022-10-18T00:39:02.512Z,102742.75
2022-10-18T00:41:31.788Z,102746.38
2022-10-18T00:44:04.334Z,102755.16
2022-10-18T00:46:32.998Z,102746.44
2022-10-18T00:49:02.304Z,102747.63
2022-10-18T00:51:33.815Z,102747.63
2022-10-18T00:54:00.411Z,102746.78
2022-10-18T00:56:26.944Z,102747.63
2022-10-18T00:58:53.916Z,102746.66
2022-10-18T01:01:23.232Z,102758.22
2022-10-18T01:03:53.069Z,102766.16
2022-10-18T01:06:19.622Z,102760.94
2022-10-18T01:09:07.151Z,102761.06
2022-10-18T01:11:43.102Z,102765.81
2022-10-18T01:14:21.276Z,102763.50
2022-10-18T01:16:53.041Z,102764.53
2022-10-18T01:19:57.640Z,102763.81
2022-10-18T01:22:28.979Z,102767.94
2022-10-18T01:25:05.085Z,102759.38
2022-10-18T01:28:02.607Z,102754.19
2022-10-18T01:30:53.854Z,102765.84
2022-10-18T01:33:28.680Z,102783.13
2022-10-18T01:36:14.035Z,102780.38
2022-10-18T01:38:42.371Z,102780.28
2022-10-18T01:41:14.855Z,102776.88
2022-10-18T01:43:45.236Z,102774.75
2022-10-18T01:46:13.416Z,102778.78
2022-10-18T01:48:39.890Z,102779.09
2022-10-18T01:51:06.291Z,102782.59
2022-10-18T01:53:34.676Z,102771.97
2022-10-18T01:56:31.306Z,102764.03
2022-10-18T01:59:36.434Z,102771.97
2022-10-18T02:02:07.616Z,102775.69
2022-10-18T02:05:01.424Z,102770.50
2022-10-18T02:07:34.409Z,102766.34
2022-10-18T02:10:18.094Z,102773.25
2022-10-18T02:12:46.671Z,102770.47
2022-10-18T02:15:16.681Z,102774.47
2022-10-18T02:17:45.159Z,102778.25
2022-10-18T02:20:14.704Z,102774.03
2022-10-18T02:22:45.755Z,102773.72
2022-10-18T02:25:19.442Z,102774.47
2022-10-18T02:27:46.115Z,102781.69
2022-10-18T02:30:13.006Z,102773.91
2022-10-18T02:32:50.194Z,102777.53
2022-10-18T02:35:29.488Z,102776.00
2022-10-18T02:37:58.064Z,102772.72
2022-10-18T02:40:25.333Z,102779.91
2022-10-18T02:42:57.806Z,102783.81
2022-10-18T02:45:25.548Z,102773.81
2022-10-18T02:47:53.057Z,102776.97
2022-10-18T02:50:19.420Z,102777.47
2022-10-18T02:52:45.782Z,102777.66
2022-10-18T02:55:12.236Z,102781.31
2022-10-18T02:57:38.658Z,102779.91
2022-10-18T03:00:06.197Z,102780.28
2022-10-18T03:02:32.638Z,102764.81
2022-10-18T03:04:59.012Z,102768.63
2022-10-18T03:07:25.403Z,102765.19
2022-10-18T03:09:51.760Z,102769.94
2022-10-18T03:12:18.339Z,102774.47
2022-10-18T03:14:44.688Z,102773.63
2022-10-18T03:17:11.162Z,102772.97
2022-10-18T03:19:38.670Z,102779.28
2022-10-18T03:22:05.685Z,102782.25
2022-10-18T03:24:32.377Z,102780.94
2022-10-18T03:26:58.763Z,102781.19
2022-10-18T03:29:25.083Z,102786.38
2022-10-18T03:31:51.385Z,102782.78
2022-10-18T03:34:17.855Z,102790.66
2022-10-18T03:36:44.266Z,102788.84
2022-10-18T03:39:12.311Z,102780.94
2022-10-18T03:41:38.684Z,102794.03
2022-10-18T03:44:05.171Z,102783.56
2022-10-18T03:46:31.536Z,102776.75
2022-10-18T03:48:57.927Z,102784.91
2022-10-18T03:51:24.285Z,102778.94
2022-10-18T03:53:50.592Z,102791.47
2022-10-18T03:56:16.887Z,102791.88
2022-10-18T03:58:43.204Z,102794.69
2022-10-18T04:01:09.604Z,102785.81
2022-10-18T04:03:35.965Z,102784.78
2022-10-18T04:06:03.552Z,102771.84
2022-10-18T04:08:30.460Z,102778.44
2022-10-18T04:10:56.798Z,102782.31
2022-10-18T04:13:23.167Z,102780.78
2022-10-18T04:15:49.481Z,102777.50
2022-10-18T04:18:15.778Z,102774.16
2022-10-18T04:20:42.137Z,102774.84
2022-10-18T04:23:08.446Z,102787.25
2022-10-18T04:25:34.856Z,102788.41
2022-10-18T04:28:01.306Z,102798.47
2022-10-18T04:30:27.628Z,102782.13
2022-10-18T04:32:53.930Z,102776.47
2022-10-18T04:35:24.314Z,102788.28
2022-10-18T04:37:50.850Z,102787.13
2022-10-18T04:40:17.384Z,102779.44
2022-10-18T04:42:43.703Z,102784.06
2022-10-18T04:45:10.458Z,102789.69
2022-10-18T04:47:36.785Z,102788.31
2022-10-18T04:50:04.674Z,102783.22
2022-10-18T04:52:31.332Z,102785.19
2022-10-18T04:54:57.650Z,102789.75
2022-10-18T04:57:24.078Z,102785.53
2022-10-18T04:59:50.391Z,102790.88
2022-10-18T05:02:16.755Z,102796.13
2022-10-18T05:04:43.088Z,102793.69
2022-10-18T05:07:09.436Z,102793.09
2022-10-18T05:09:35.812Z,102789.69
2022-10-18T05:12:02.121Z,102795.13
2022-10-18T05:14:28.438Z,102798.88
2022-10-18T05:16:54.777Z,102803.63
2022-10-18T05:19:21.165Z,102804.72
2022-10-18T05:21:47.478Z,102801.75
2022-10-18T05:24:13.829Z,102805.47
2022-10-18T05:26:40.283Z,102802.06
2022-10-18T05:29:06.740Z,102814.31
2022-10-18T05:31:33.142Z,102815.16
2022-10-18T05:33:59.474Z,102822.94
2022-10-18T05:36:26.128Z,102820.44
2022-10-18T05:38:53.492Z,102818.03
2022-10-18T05:41:19.919Z,102822.66
2022-10-18T05:43:46.219Z,102819.25
2022-10-18T05:46:15.322Z,102825.38
2022-10-18T05:48:44.063Z,102828.75
2022-10-18T05:51:10.526Z,102836.34
2022-10-18T05:53:38.053Z,102834.47
2022-10-18T05:56:05.544Z,102838.81
2022-10-18T05:58:32.049Z,102838.81
2022-10-18T06:01:00.786Z,102842.22
2022-10-18T06:03:36.239Z,102849.03
2022-10-18T06:06:05.396Z,102855.84
2022-10-18T06:08:32.324Z,102861.75
2022-10-18T06:10:58.837Z,102857.88
2022-10-18T06:13:25.223Z,102851.63
2022-10-18T06:15:56.328Z,102863.69
2022-10-18T06:18:22.646Z,102868.97
2022-10-18T06:20:48.954Z,102874.75
2022-10-18T06:23:15.285Z,102867.88
2022-10-18T06:25:41.598Z,102872.53
2022-10-18T06:28:10.177Z,102878.13
2022-10-18T06:30:38.444Z,102893.06
2022-10-18T06:33:04.768Z,102892.88
2022-10-18T06:35:31.106Z,102883.88
2022-10-18T06:37:57.587Z,102887.19
2022-10-18T06:40:24.015Z,102890.44
2022-10-18T06:43:00.043Z,102901.06
2022-10-18T06:45:27.102Z,102901.06
2022-10-18T06:47:53.411Z,102900.03
2022-10-18T06:50:19.703Z,102899.81
2022-10-18T06:52:46.869Z,102909.00
2022-10-18T06:55:13.380Z,102911.41
2022-10-18T06:57:39.856Z,102919.75
2022-10-18T07:00:06.679Z,102924.69
2022-10-18T07:02:33.384Z,102917.41
2022-10-18T07:04:59.848Z,102925.56
2022-10-18T07:07:26.187Z,102931.19
2022-10-18T07:09:52.563Z,102934.00
2022-10-18T07:12:18.910Z,102944.31
2022-10-18T07:14:46.188Z,102934.94
2022-10-18T07:17:12.508Z,102942.53
2022-10-18T07:19:38.872Z,102946.94
2022-10-18T07:22:05.173Z,102943.59
2022-10-18T07:27:02.807Z,102944.09
2022-10-18T07:29:29.215Z,102934.00
2022-10-18T07:31:55.580Z,102955.44
2022-10-18T07:34:21.937Z,102957.03
2022-10-18T07:36:48.336Z,102957.75
2022-10-18T07:39:15.117Z,102964.41
2022-10-18T07:41:41.433Z,102957.41
2022-10-18T07:44:07.798Z,102954.16
2022-10-18T07:46:34.140Z,102965.63
2022-10-18T07:49:00.551Z,102964.94
2022-10-18T07:51:28.050Z,102964.72
2022-10-18T07:53:54.385Z,102964.09
2022-10-18T07:56:21.813Z,102970.28
2022-10-18T07:58:53.527Z,102974.34
2022-10-18T08:01:21.442Z,102976.06
2022-10-18T08:03:47.810Z,102982.69
2022-10-18T08:06:18.507Z,102986.34
2022-10-18T08:08:45.520Z,102980.88
2022-10-18T08:11:15.737Z,102991.28
2022-10-18T08:13:43.006Z,102994.34
2022-10-18T08:16:12.347Z,102990.41
2022-10-18T08:18:39.298Z,102987.91
2022-10-18T08:21:09.013Z,102993.44
2022-10-18T08:23:35.812Z,102985.03
2022-10-18T08:26:03.721Z,102995.63
2022-10-18T08:28:30.150Z,102999.53
2022-10-18T08:30:56.542Z,102991.78
2022-10-18T08:33:23.612Z,103003.91
2022-10-18T08:36:01.083Z,103000.50
2022-10-18T08:38:31.364Z,102996.16
2022-10-18T08:41:23.494Z,103000.00
2022-10-18T08:44:04.695Z,102984.75
2022-10-18T08:46:36.916Z,102984.28
2022-10-18T08:49:05.419Z,102983.72
2022-10-18T08:51:45.263Z,102993.47
2022-10-18T08:54:18.566Z,102988.63
2022-10-18T08:56:52.715Z,102988.81
2022-10-18T08:59:23.234Z,102986.97
2022-10-18T09:02:04.450Z,102990.56
2022-10-18T09:05:01.662Z,102979.78
2022-10-18T09:07:51.546Z,102984.59
2022-10-18T09:10:33.814Z,102991.75
2022-10-18T09:13:18.943Z,102994.91
2022-10-18T09:15:51.222Z,102997.34
2022-10-18T09:18:36.521Z,103004.00
2022-10-18T09:21:41.502Z,102991.91
2022-10-18T09:24:26.583Z,103002.16
2022-10-18T09:26:59.310Z,103008.41
2022-10-18T09:29:47.171Z,103010.13
2022-10-18T09:32:39.023Z,103005.19
2022-10-18T09:35:48.893Z,103015.00
2022-10-18T09:38:21.477Z,103012.53
2022-10-18T09:40:54.967Z,103011.03
2022-10-18T09:43:25.726Z,103015.44
2022-10-18T09:45:54.382Z,103009.63
2022-10-18T09:48:33.829Z,103010.00
2022-10-18T09:51:17.528Z,103008.19
2022-10-18T09:54:02.090Z,103008.38
2022-10-18T09:56:52.222Z,103005.63
2022-10-18T09:59:31.159Z,103017.34
2022-10-18T10:01:57.544Z,103012.34
2022-10-18T10:04:23.836Z,103013.75
2022-10-18T10:06:52.240Z,103011.03
2022-10-18T10:09:25.591Z,103015.09
2022-10-18T10:11:52.259Z,103015.03
2022-10-18T10:14:23.640Z,103013.88
2022-10-18T10:17:29.617Z,103015.16
2022-10-18T10:19:57.827Z,103028.91
2022-10-18T10:22:35.116Z,103027.53
2022-10-18T10:25:02.040Z,103022.72
2022-10-18T10:27:43.272Z,103026.66
2022-10-18T10:30:37.343Z,103025.59
2022-10-18T10:33:05.504Z,103033.50
2022-10-18T10:35:49.003Z,103030.06
2022-10-18T10:38:24.631Z,103037.66
2022-10-18T10:40:51.246Z,103042.63
2022-10-18T10:43:39.344Z,103041.88
2022-10-18T10:46:15.595Z,103038.25
2022-10-18T10:48:57.062Z,103040.53
2022-10-18T10:51:36.419Z,103043.66
2022-10-18T10:54:17.594Z,103041.25
2022-10-18T10:57:02.345Z,103044.88
2022-10-18T10:59:44.271Z,103043.16
2022-10-18T11:02:13.851Z,103046.91
2022-10-18T11:04:41.137Z,103040.59
2022-10-18T11:07:27.715Z,103045.69
2022-10-18T11:09:59.966Z,103041.75
2022-10-18T11:12:34.159Z,103047.81
2022-10-18T11:15:10.259Z,103045.69
2022-10-18T11:17:44.043Z,103052.03
2022-10-18T11:20:24.663Z,103045.28
2022-10-18T11:22:56.763Z,103042.34
2022-10-18T11:25:28.830Z,103041.97
2022-10-18T11:28:04.205Z,103032.75
2022-10-18T11:30:46.144Z,103034.00
2022-10-18T11:33:49.442Z,103032.31
2022-10-18T11:37:22.994Z,103029.00
2022-10-18T11:40:00.779Z,103037.38
2022-10-18T11:42:30.147Z,103029.00
2022-10-18T11:45:18.385Z,103036.63
2022-10-18T11:47:56.096Z,103034.63
2022-10-18T11:50:54.077Z,103033.16
2022-10-18T11:53:41.747Z,103033.38
2022-10-18T11:56:32.042Z,103027.72
2022-10-18T11:59:17.609Z,103035.88
2022-10-18T12:01:51.772Z,103038.19
2022-10-18T12:04:22.395Z,103029.38
2022-10-18T12:06:51.989Z,103020.19
2022-10-18T12:09:38.914Z,103029.38
2022-10-18T12:12:16.348Z,103032.75
2022-10-18T12:14:49.104Z,103024.94
2022-10-18T12:17:49.923Z,103021.41
2022-10-18T12:20:23.202Z,103013.50
2022-10-18T12:22:57.007Z,103022.63
2022-10-18T12:25:24.368Z,103017.34
2022-10-18T12:28:08.700Z,103026.44
2022-10-18T12:30:46.055Z,103037.22
2022-10-18T12:33:28.371Z,103032.88
2022-10-18T12:36:13.950Z,103039.88
2022-10-18T12:38:45.319Z,103045.06
2022-10-18T12:41:25.030Z,103044.53
2022-10-18T12:43:55.407Z,103036.19
2022-10-18T12:46:22.086Z,103037.72
2022-10-18T12:49:04.313Z,103033.00
2022-10-18T12:51:31.206Z,103037.91
2022-10-18T12:54:00.473Z,103034.00
2022-10-18T12:56:30.118Z,103031.28
2022-10-18T12:59:28.880Z,103039.66
2022-10-18T13:01:55.289Z,103029.06
2022-10-18T13:04:27.750Z,103024.25
2022-10-18T13:06:57.142Z,103019.25
2022-10-18T13:09:29.608Z,103017.94
2022-10-18T13:12:18.847Z,103022.84
2022-10-18T13:15:24.091Z,103004.50
2022-10-18T13:18:04.136Z,103007.81
2022-10-18T13:20:56.228Z,102994.31
2022-10-18T13:23:42.975Z,102996.00
2022-10-18T13:26:31.947Z,103005.13
2022-10-18T13:29:15.270Z,102996.16
2022-10-18T13:31:47.503Z,102990.16
2022-10-18T13:34:33.075Z,102994.13
2022-10-18T13:37:18.508Z,103003.47
2022-10-18T13:39:45.123Z,103012.06
2022-10-18T13:42:14.397Z,103008.00
2022-10-18T13:44:43.498Z,103014.59
2022-10-18T13:47:13.150Z,103016.31
2022-10-18T13:49:39.447Z,103008.19
2022-10-18T13:52:43.062Z,103006.34
2022-10-18T13:55:21.478Z,103011.50
2022-10-18T13:57:47.693Z,102999.19
2022-10-18T14:00:48.788Z,103014.19
2022-10-18T14:04:03.215Z,103016.31
2022-10-18T14:06:43.532Z,103011.03
2022-10-18T14:12:21.430Z,103010.03
2022-10-18T14:15:01.922Z,103015.19
2022-10-18T14:17:35.050Z,103010.63
2022-10-18T14:20:14.531Z,103013.78
2022-10-18T14:22:47.933Z,103020.09
2022-10-18T14:25:27.288Z,103026.19
2022-10-18T14:28:31.497Z,103015.75
2022-10-18T14:31:19.988Z,103017.94
2022-10-18T14:33:57.032Z,103031.16
2022-10-18T14:36:27.024Z,103030.28
2022-10-18T14:38:59.179Z,103024.94
2022-10-18T14:41:27.870Z,103026.66
2022-10-18T14:44:15.601Z,103036.81
2022-10-18T14:46:47.757Z,103031.59
2022-10-18T14:49:14.991Z,103039.41
2022-10-18T14:51:43.463Z,103036.69
2022-10-18T14:54:32.403Z,103032.66
2022-10-18T14:57:00.353Z,103031.91
2022-10-18T14:59:29.808Z,103038.09
2022-10-18T15:02:00.236Z,103045.56
2022-10-18T15:04:33.121Z,103041.44
2022-10-18T15:07:05.829Z,103039.00
2022-10-18T15:09:35.509Z,103044.78
2022-10-18T15:12:07.049Z,103044.28
2022-10-18T15:14:34.688Z,103042.06
2022-10-18T15:17:34.172Z,103039.84
2022-10-18T15:20:06.205Z,103041.06
2022-10-18T15:22:33.530Z,103041.38
2022-10-18T15:25:05.850Z,103041.94
2022-10-18T15:27:36.743Z,103040.78
2022-10-18T15:30:10.905Z,103041.34
2022-10-18T15:32:37.792Z,103037.75
2022-10-18T15:35:14.161Z,103031.97
2022-10-18T15:37:43.994Z,103035.84
2022-10-18T15:40:34.079Z,103052.22
2022-10-18T15:43:25.374Z,103043.72
2022-10-18T15:45:58.771Z,103039.06
2022-10-18T15:48:39.708Z,103050.84
2022-10-18T15:51:32.650Z,103050.66
2022-10-18T15:53:58.955Z,103050.22
2022-10-18T15:56:34.954Z,103056.16
2022-10-18T15:59:04.723Z,103060.50
2022-10-18T16:01:36.269Z,103059.22
2022-10-18T16:04:09.063Z,103064.31
2022-10-18T16:06:38.441Z,103061.31
2022-10-18T16:09:05.301Z,103066.38
2022-10-18T16:11:31.631Z,103051.19
2022-10-18T16:14:00.349Z,103056.34
2022-10-18T16:16:28.839Z,103055.00
2022-10-18T16:18:56.367Z,103060.91
2022-10-18T16:21:32.831Z,103063.59
2022-10-18T16:23:59.574Z,103061.72
2022-10-18T16:26:27.334Z,103066.09
2022-10-18T16:28:55.215Z,103073.13
2022-10-18T16:31:24.807Z,103075.59
2022-10-18T16:33:52.560Z,103071.91
2022-10-18T16:36:24.823Z,103065.66
2022-10-18T16:38:51.442Z,103072.38
2022-10-18T16:41:18.267Z,103074.63
2022-10-18T16:43:46.582Z,103074.22
2022-10-18T16:46:20.857Z,103073.84
2022-10-18T16:48:49.027Z,103076.22
2022-10-18T16:51:15.791Z,103078.69
2022-10-18T16:53:42.251Z,103083.38
2022-10-18T16:56:20.833Z,103084.69
2022-10-18T16:58:47.721Z,103088.88
2022-10-18T17:01:16.552Z,103097.25
2022-10-18T17:03:43.285Z,103096.56
2022-10-18T17:06:32.062Z,103105.88
2022-10-18T17:08:59.538Z,103108.16
2022-10-18T17:11:28.184Z,103111.09
2022-10-18T17:13:55.039Z,103110.66
2022-10-18T17:19:02.195Z,103112.69
2022-10-18T17:21:29.542Z,103106.19
2022-10-18T17:24:04.482Z,103111.06
2022-10-18T17:26:31.476Z,103127.84
2022-10-18T17:29:00.762Z,103131.75
2022-10-18T17:31:28.203Z,103124.56
2022-10-18T17:33:55.241Z,103129.31
2022-10-18T17:36:22.250Z,103128.06
2022-10-18T17:38:52.895Z,103125.97
2022-10-18T17:41:19.694Z,103132.56
2022-10-18T17:43:47.854Z,103130.25
2022-10-18T17:46:14.346Z,103128.44
2022-10-18T17:48:41.925Z,103129.47
2022-10-18T17:51:09.867Z,103120.94
2022-10-18T17:53:36.309Z,103124.81
2022-10-18T17:56:04.410Z,103131.41
2022-10-18T17:58:31.353Z,103125.91
2022-10-18T18:00:58.465Z,103131.59
2022-10-18T18:03:24.880Z,103135.47
2022-10-18T18:05:51.195Z,103138.41
2022-10-18T18:08:17.545Z,103150.19
2022-10-18T18:10:43.909Z,103151.34
2022-10-18T18:13:10.272Z,103155.91
2022-10-18T18:15:36.604Z,103159.59
2022-10-18T18:18:03.047Z,103152.91
2022-10-18T18:20:29.443Z,103158.19
2022-10-18T18:22:55.788Z,103160.06
2022-10-18T18:25:22.096Z,103163.75
2022-10-18T18:27:48.388Z,103159.47
2022-10-18T18:30:17.558Z,103155.22
2022-10-18T18:32:43.892Z,103162.31
2022-10-18T18:35:10.194Z,103160.78
2022-10-18T18:37:36.499Z,103157.50
2022-10-18T18:40:03.065Z,103159.63
2022-10-18T18:42:29.403Z,103162.63
2022-10-18T18:44:55.754Z,103171.69
2022-10-18T18:47:23.275Z,103174.66
2022-10-18T18:49:51.360Z,103174.16
2022-10-18T18:52:17.687Z,103186.16
2022-10-18T18:54:44.125Z,103182.28
2022-10-18T18:57:10.489Z,103185.19
2022-10-18T18:59:36.876Z,103185.19
2022-10-18T19:02:03.240Z,103192.16
2022-10-18T19:04:29.692Z,103187.13
2022-10-18T19:06:55.989Z,103174.16
2022-10-18T19:09:22.892Z,103178.16
2022-10-18T19:11:52.777Z,103185.59
2022-10-18T19:14:19.604Z,103187.63
2022-10-18T19:16:49.877Z,103185.84
2022-10-18T19:19:21.551Z,103186.63
2022-10-18T19:21:53.423Z,103189.19
2022-10-18T19:24:21.003Z,103189.38
2022-10-18T19:26:52.179Z,103188.72
2022-10-18T19:29:28.998Z,103183.53
2022-10-18T19:31:57.562Z,103186.34
2022-10-18T19:34:25.879Z,103186.56
2022-10-18T19:36:52.723Z,103191.91
2022-10-18T19:39:24.718Z,103177.34
2022-10-18T19:41:55.087Z,103191.59
2022-10-18T19:44:23.029Z,103181.25
2022-10-18T19:46:50.844Z,103179.56
2022-10-18T19:49:17.358Z,103184.06
2022-10-18T19:51:43.975Z,103178.09
2022-10-18T19:54:14.739Z,103172.09
2022-10-18T19:56:41.811Z,103177.47
2022-10-18T19:59:08.735Z,103172.47
2022-10-18T20:01:36.112Z,103175.31
2022-10-18T20:04:06.540Z,103173.78
2022-10-18T20:06:33.266Z,103177.44
2022-10-18T20:08:59.702Z,103174.88
2022-10-18T20:11:28.786Z,103180.97
2022-10-18T20:13:56.346Z,103181.88
2022-10-18T20:16:28.094Z,103186.59
2022-10-18T20:18:59.781Z,103194.75
2022-10-18T20:21:28.226Z,103185.09
2022-10-18T20:23:54.944Z,103193.91
2022-10-18T20:26:21.842Z,103194.00
2022-10-18T20:28:56.169Z,103203.50
2022-10-18T20:31:29.057Z,103195.63
2022-10-18T20:34:01.651Z,103197.53
2022-10-18T20:36:29.548Z,103194.22
2022-10-18T20:38:56.331Z,103194.56
2022-10-18T20:41:30.752Z,103197.34
2022-10-18T20:43:59.310Z,103195.78
2022-10-18T20:46:27.129Z,103191.47
2022-10-18T20:48:54.219Z,103194.25
2022-10-18T20:51:21.933Z,103197.06
2022-10-18T20:53:49.311Z,103182.25
2022-10-18T20:56:20.142Z,103185.78
2022-10-18T20:58:50.327Z,103185.06
2022-10-18T21:01:19.406Z,103175.66
2022-10-18T21:03:47.949Z,103178.28
2022-10-18T21:06:16.764Z,103176.56
2022-10-18T21:08:44.646Z,103177.56
2022-10-18T21:11:12.130Z,103173.44
2022-10-18T21:13:40.662Z,103185.06
2022-10-18T21:16:07.847Z,103174.75
2022-10-18T21:18:36.752Z,103173.31
2022-10-18T21:23:40.284Z,103170.78
2022-10-18T21:26:07.387Z,103174.31
2022-10-18T21:28:34.470Z,103170.13
2022-10-18T21:31:15.914Z,103180.03
2022-10-18T21:33:43.716Z,103173.31
2022-10-18T21:36:10.725Z,103171.56
2022-10-18T21:38:37.802Z,103177.88
2022-10-18T21:41:09.783Z,103178.09
2022-10-18T21:43:39.474Z,103172.84
2022-10-18T21:46:05.991Z,103177.31
2022-10-18T21:48:32.305Z,103175.28
2022-10-18T21:51:06.118Z,103182.09
2022-10-18T21:53:33.011Z,103182.25
2022-10-18T21:56:07.900Z,103185.03
2022-10-18T21:58:35.887Z,103191.41
2022-10-18T22:01:09.986Z,103182.69
2022-10-18T22:03:37.127Z,103187.91
2022-10-18T22:06:13.107Z,103176.44
2022-10-18T22:08:44.573Z,103172.84
2022-10-18T22:11:12.765Z,103164.91
2022-10-18T22:13:39.520Z,103164.06
2022-10-18T22:16:07.301Z,103169.38
2022-10-18T22:18:33.830Z,103163.22
2022-10-18T22:21:03.430Z,103161.50
2022-10-18T22:23:43.575Z,103165.84
2022-10-18T22:26:22.295Z,103169.50
2022-10-18T22:28:54.466Z,103173.06
2022-10-18T22:31:22.911Z,103169.56
2022-10-18T22:33:54.928Z,103162.56
2022-10-18T22:36:21.858Z,103157.25
2022-10-18T22:38:48.453Z,103157.13
2022-10-18T22:41:14.851Z,103162.25
2022-10-18T22:43:41.330Z,103160.63
2022-10-18T22:46:10.668Z,103161.69
2022-10-18T22:48:37.404Z,103159.97
2022-10-18T22:51:04.377Z,103158.34
2022-10-18T22:53:32.219Z,103160.25
2022-10-18T22:55:58.802Z,103151.66
2022-10-18T22:58:25.672Z,103154.34
2022-10-18T23:00:59.230Z,103153.63
2022-10-18T23:03:25.594Z,103155.50
2022-10-18T23:05:52.059Z,103155.69
2022-10-18T23:08:18.420Z,103163.69
2022-10-18T23:10:44.796Z,103155.97
2022-10-18T23:13:11.155Z,103157.84
2022-10-18T23:15:41.003Z,103154.41
2022-10-18T23:18:07.401Z,103155.44
2022-10-18T23:20:33.784Z,103150.41
2022-10-18T23:23:00.345Z,103149.66
2022-10-18T23:25:27.180Z,103145.47
2022-10-18T23:27:53.680Z,103149.09
2022-10-18T23:30:20.041Z,103150.16
2022-10-18T23:32:46.439Z,103155.53
2022-10-18T23:35:12.796Z,103154.81
2022-10-18T23:37:39.131Z,103166.34
2022-10-18T23:40:06.046Z,103161.28
2022-10-18T23:42:32.369Z,103168.34
2022-10-18T23:44:58.753Z,103172.81
2022-10-18T23:47:25.142Z,103173.88
2022-10-18T23:49:51.476Z,103173.09
2022-10-18T23:52:17.999Z,103173.13
2022-10-18T23:57:15.731Z,103175.84
2022-10-18T23:59:42.124Z,103171.47
